sensor_id;sensor_type;location;lat;lon;timestamp;pressure;altitude;pressure_sealevel;temperature;humidity
32873;BME280;19224;52.462;16.898;2023-03-19T00:02:21;100213.25;;;8.56;83.65
32873;BME280;19224;52.462;16.898;2023-03-19T00:04:52;100219.44;;;8.58;83.55
32873;BME280;19224;52.462;16.898;2023-03-19T00:07:22;100215.62;;;8.52;83.78
32873;BME280;19224;52.462;16.898;2023-03-19T00:09:53;100223.14;;;8.54;84.08
32873;BME280;19224;52.462;16.898;2023-03-19T00:12:23;100217.69;;;8.57;83.73
32873;BME280;19224;52.462;16.898;2023-03-19T00:14:53;100223.20;;;8.64;84.11
32873;BME280;19224;52.462;16.898;2023-03-19T00:17:23;100215.88;;;8.69;85.75
32873;BME280;19224;52.462;16.898;2023-03-19T00:19:54;100218.48;;;8.82;85.26
32873;BME280;19224;52.462;16.898;2023-03-19T00:22:24;100224.44;;;8.79;84.28
32873;BME280;19224;52.462;16.898;2023-03-19T00:24:55;100228.89;;;8.68;84.39
32873;BME280;19224;52.462;16.898;2023-03-19T00:27:25;100230.17;;;8.58;85.21
32873;BME280;19224;52.462;16.898;2023-03-19T00:29:55;100222.05;;;8.48;86.08
32873;BME280;19224;52.462;16.898;2023-03-19T00:32:25;100222.58;;;8.46;86.29
32873;BME280;19224;52.462;16.898;2023-03-19T00:34:56;100228.56;;;8.41;86.24
32873;BME280;19224;52.462;16.898;2023-03-19T00:37:26;100221.77;;;8.44;86.11
32873;BME280;19224;52.462;16.898;2023-03-19T00:39:57;100227.89;;;8.59;85.97
32873;BME280;19224;52.462;16.898;2023-03-19T00:42:27;100229.23;;;8.59;85.72
32873;BME280;19224;52.462;16.898;2023-03-19T00:44:58;100228.30;;;8.60;85.11
32873;BME280;19224;52.462;16.898;2023-03-19T00:47:29;100225.73;;;8.57;85.64
32873;BME280;19224;52.462;16.898;2023-03-19T00:49:59;100214.92;;;8.59;85.71
32873;BME280;19224;52.462;16.898;2023-03-19T00:52:29;100216.50;;;8.64;85.25
32873;BME280;19224;52.462;16.898;2023-03-19T00:55:00;100219.84;;;8.59;85.87
32873;BME280;19224;52.462;16.898;2023-03-19T00:57:30;100214.88;;;8.60;85.20
32873;BME280;19224;52.462;16.898;2023-03-19T01:00:01;100218.19;;;8.55;86.57
32873;BME280;19224;52.462;16.898;2023-03-19T01:02:32;100217.49;;;8.50;87.38
32873;BME280;19224;52.462;16.898;2023-03-19T01:05:02;100216.97;;;8.52;87.00
32873;BME280;19224;52.462;16.898;2023-03-19T01:07:33;100214.16;;;8.55;87.54
32873;BME280;19224;52.462;16.898;2023-03-19T01:10:05;100220.24;;;8.60;87.26
32873;BME280;19224;52.462;16.898;2023-03-19T01:12:36;100220.01;;;8.55;86.71
32873;BME280;19224;52.462;16.898;2023-03-19T01:15:08;100212.31;;;8.57;86.95
32873;BME280;19224;52.462;16.898;2023-03-19T01:17:39;100215.98;;;8.55;87.55
32873;BME280;19224;52.462;16.898;2023-03-19T01:20:11;100218.50;;;8.59;87.33
32873;BME280;19224;52.462;16.898;2023-03-19T01:22:47;100214.53;;;8.69;87.36
32873;BME280;19224;52.462;16.898;2023-03-19T01:25:19;100209.61;;;8.69;87.59
32873;BME280;19224;52.462;16.898;2023-03-19T01:27:50;100214.00;;;8.71;87.21
32873;BME280;19224;52.462;16.898;2023-03-19T01:30:23;100213.02;;;8.74;86.66
32873;BME280;19224;52.462;16.898;2023-03-19T01:33:00;100209.31;;;8.53;87.16
32873;BME280;19224;52.462;16.898;2023-03-19T01:35:30;100210.49;;;8.58;86.93
32873;BME280;19224;52.462;16.898;2023-03-19T01:38:01;100206.41;;;8.59;86.89
32873;BME280;19224;52.462;16.898;2023-03-19T01:40:35;100201.97;;;8.47;87.90
32873;BME280;19224;52.462;16.898;2023-03-19T01:43:15;100202.63;;;8.42;88.10
32873;BME280;19224;52.462;16.898;2023-03-19T01:45:47;100204.78;;;8.44;87.74
32873;BME280;19224;52.462;16.898;2023-03-19T01:48:34;100199.22;;;8.37;88.49
32873;BME280;19224;52.462;16.898;2023-03-19T01:51:05;100203.70;;;8.25;89.03
32873;BME280;19224;52.462;16.898;2023-03-19T01:53:40;100208.67;;;8.11;89.70
32873;BME280;19224;52.462;16.898;2023-03-19T01:56:33;100207.20;;;8.02;90.04
32873;BME280;19224;52.462;16.898;2023-03-19T01:59:24;100213.01;;;7.90;90.55
32873;BME280;19224;52.462;16.898;2023-03-19T02:02:27;100207.84;;;7.84;90.96
32873;BME280;19224;52.462;16.898;2023-03-19T02:05:13;100203.25;;;7.88;90.58
32873;BME280;19224;52.462;16.898;2023-03-19T02:07:45;100207.73;;;7.87;90.78
32873;BME280;19224;52.462;16.898;2023-03-19T02:10:19;100196.59;;;7.86;90.92
32873;BME280;19224;52.462;16.898;2023-03-19T02:12:50;100195.05;;;7.92;90.80
32873;BME280;19224;52.462;16.898;2023-03-19T02:15:24;100191.44;;;7.93;90.53
32873;BME280;19224;52.462;16.898;2023-03-19T02:17:56;100204.44;;;7.92;90.67
32873;BME280;19224;52.462;16.898;2023-03-19T02:26:30;100202.60;;;7.81;91.95
32873;BME280;19224;52.462;16.898;2023-03-19T02:29:01;100197.40;;;7.77;91.75
32873;BME280;19224;52.462;16.898;2023-03-19T02:31:32;100202.27;;;7.77;92.58
32873;BME280;19224;52.462;16.898;2023-03-19T02:34:06;100205.05;;;7.87;91.77
32873;BME280;19224;52.462;16.898;2023-03-19T02:36:43;100199.28;;;7.86;92.13
32873;BME280;19224;52.462;16.898;2023-03-19T02:39:30;100208.78;;;7.83;92.35
32873;BME280;19224;52.462;16.898;2023-03-19T02:42:03;100208.78;;;7.83;93.14
32873;BME280;19224;52.462;16.898;2023-03-19T02:44:34;100210.37;;;7.89;92.30
32873;BME280;19224;52.462;16.898;2023-03-19T02:47:05;100205.30;;;7.93;91.96
32873;BME280;19224;52.462;16.898;2023-03-19T02:49:35;100202.98;;;7.95;91.76
32873;BME280;19224;52.462;16.898;2023-03-19T02:52:06;100212.66;;;7.99;91.42
32873;BME280;19224;52.462;16.898;2023-03-19T02:54:43;100208.30;;;7.97;91.73
32873;BME280;19224;52.462;16.898;2023-03-19T02:57:18;100215.33;;;7.99;91.58
32873;BME280;19224;52.462;16.898;2023-03-19T02:59:47;100220.53;;;7.92;91.90
32873;BME280;19224;52.462;16.898;2023-03-19T03:02:17;100218.30;;;7.92;91.68
32873;BME280;19224;52.462;16.898;2023-03-19T03:04:48;100228.56;;;7.92;91.69
32873;BME280;19224;52.462;16.898;2023-03-19T03:07:21;100231.78;;;7.90;91.68
32873;BME280;19224;52.462;16.898;2023-03-19T03:09:51;100239.74;;;7.92;91.59
32873;BME280;19224;52.462;16.898;2023-03-19T03:12:23;100242.02;;;7.91;91.55
32873;BME280;19224;52.462;16.898;2023-03-19T03:15:05;100233.61;;;7.88;91.50
32873;BME280;19224;52.462;16.898;2023-03-19T03:17:31;100233.45;;;7.93;91.23
32873;BME280;19224;52.462;16.898;2023-03-19T03:20:02;100234.54;;;7.87;91.29
32873;BME280;19224;52.462;16.898;2023-03-19T03:22:37;100240.13;;;7.81;91.77
32873;BME280;19224;52.462;16.898;2023-03-19T03:25:08;100236.03;;;7.83;91.60
32873;BME280;19224;52.462;16.898;2023-03-19T03:27:41;100240.29;;;7.77;91.95
32873;BME280;19224;52.462;16.898;2023-03-19T03:30:12;100245.38;;;7.84;91.88
32873;BME280;19224;52.462;16.898;2023-03-19T03:32:45;100251.63;;;7.85;91.61
32873;BME280;19224;52.462;16.898;2023-03-19T03:35:15;100248.73;;;7.78;91.97
32873;BME280;19224;52.462;16.898;2023-03-19T03:37:57;100256.33;;;7.78;92.15
32873;BME280;19224;52.462;16.898;2023-03-19T03:40:23;100260.02;;;7.74;92.30
32873;BME280;19224;52.462;16.898;2023-03-19T03:42:57;100263.86;;;7.67;92.04
32873;BME280;19224;52.462;16.898;2023-03-19T03:45:28;100262.19;;;7.63;92.09
32873;BME280;19224;52.462;16.898;2023-03-19T03:48:05;100264.61;;;7.58;92.67
32873;BME280;19224;52.462;16.898;2023-03-19T03:50:35;100258.98;;;7.52;93.23
32873;BME280;19224;52.462;16.898;2023-03-19T03:53:05;100257.46;;;7.45;94.12
32873;BME280;19224;52.462;16.898;2023-03-19T03:55:41;100255.78;;;7.41;94.30
32873;BME280;19224;52.462;16.898;2023-03-19T03:58:11;100257.27;;;7.37;94.33
32873;BME280;19224;52.462;16.898;2023-03-19T04:00:41;100250.64;;;7.35;94.54
32873;BME280;19224;52.462;16.898;2023-03-19T04:03:12;100255.33;;;7.29;94.74
32873;BME280;19224;52.462;16.898;2023-03-19T04:05:43;100255.26;;;7.30;94.82
32873;BME280;19224;52.462;16.898;2023-03-19T04:08:16;100257.92;;;7.17;96.08
32873;BME280;19224;52.462;16.898;2023-03-19T04:10:53;100255.12;;;7.07;96.57
32873;BME280;19224;52.462;16.898;2023-03-19T04:13:24;100247.56;;;7.07;96.64
32873;BME280;19224;52.462;16.898;2023-03-19T04:15:58;100249.35;;;7.06;96.45
32873;BME280;19224;52.462;16.898;2023-03-19T04:18:35;100238.47;;;6.98;96.89
32873;BME280;19224;52.462;16.898;2023-03-19T04:21:04;100245.55;;;7.01;96.41
32873;BME280;19224;52.462;16.898;2023-03-19T04:23:36;100245.81;;;7.06;96.21
32873;BME280;19224;52.462;16.898;2023-03-19T04:26:09;100239.70;;;7.01;96.74
32873;BME280;19224;52.462;16.898;2023-03-19T04:28:41;100249.05;;;7.03;96.50
32873;BME280;19224;52.462;16.898;2023-03-19T04:31:19;100243.69;;;7.03;96.49
32873;BME280;19224;52.462;16.898;2023-03-19T04:33:46;100248.16;;;7.02;96.59
32873;BME280;19224;52.462;16.898;2023-03-19T04:36:17;100245.47;;;7.02;96.96
32873;BME280;19224;52.462;16.898;2023-03-19T04:38:51;100248.56;;;7.03;96.99
32873;BME280;19224;52.462;16.898;2023-03-19T04:41:26;100257.48;;;7.03;96.92
32873;BME280;19224;52.462;16.898;2023-03-19T04:43:58;100249.70;;;6.96;98.19
32873;BME280;19224;52.462;16.898;2023-03-19T04:46:29;100254.84;;;6.88;99.24
32873;BME280;19224;52.462;16.898;2023-03-19T04:48:59;100242.70;;;6.78;99.73
32873;BME280;19224;52.462;16.898;2023-03-19T04:51:29;100251.07;;;6.80;99.51
32873;BME280;19224;52.462;16.898;2023-03-19T04:53:59;100249.60;;;6.85;99.71
32873;BME280;19224;52.462;16.898;2023-03-19T04:56:29;100242.70;;;6.78;100.00
32873;BME280;19224;52.462;16.898;2023-03-19T04:59:00;100245.79;;;6.79;100.00
32873;BME280;19224;52.462;16.898;2023-03-19T05:01:30;100247.16;;;6.77;100.00
32873;BME280;19224;52.462;16.898;2023-03-19T05:04:00;100241.84;;;6.76;100.00
32873;BME280;19224;52.462;16.898;2023-03-19T05:06:31;100241.63;;;6.69;100.00
32873;BME280;19224;52.462;16.898;2023-03-19T05:09:02;100237.97;;;6.71;100.00
32873;BME280;19224;52.462;16.898;2023-03-19T05:11:33;100237.00;;;6.74;100.00
32873;BME280;19224;52.462;16.898;2023-03-19T05:14:04;100239.75;;;6.72;100.00
32873;BME280;19224;52.462;16.898;2023-03-19T05:16:34;100243.38;;;6.70;100.00
32873;BME280;19224;52.462;16.898;2023-03-19T05:19:04;100249.39;;;6.78;100.00
32873;BME280;19224;52.462;16.898;2023-03-19T05:21:34;100247.33;;;6.71;100.00
32873;BME280;19224;52.462;16.898;2023-03-19T05:24:05;100245.23;;;6.68;100.00
32873;BME280;19224;52.462;16.898;2023-03-19T05:26:42;100241.22;;;6.68;100.00
32873;BME280;19224;52.462;16.898;2023-03-19T05:29:21;100247.02;;;6.67;100.00
32873;BME280;19224;52.462;16.898;2023-03-19T05:31:52;100239.37;;;6.70;100.00
32873;BME280;19224;52.462;16.898;2023-03-19T05:34:24;100243.94;;;6.81;100.00
32873;BME280;19224;52.462;16.898;2023-03-19T05:36:57;100238.48;;;6.84;100.00
32873;BME280;19224;52.462;16.898;2023-03-19T05:39:29;100238.58;;;6.81;100.00
32873;BME280;19224;52.462;16.898;2023-03-19T05:42:02;100240.64;;;6.86;100.00
32873;BME280;19224;52.462;16.898;2023-03-19T05:44:31;100251.63;;;6.91;99.63
32873;BME280;19224;52.462;16.898;2023-03-19T05:47:03;100253.20;;;6.84;100.00
32873;BME280;19224;52.462;16.898;2023-03-19T05:49:39;100254.84;;;6.88;100.00
32873;BME280;19224;52.462;16.898;2023-03-19T05:52:07;100256.16;;;6.89;99.89
32873;BME280;19224;52.462;16.898;2023-03-19T05:54:38;100259.10;;;6.95;100.00
32873;BME280;19224;52.462;16.898;2023-03-19T05:57:09;100267.10;;;6.96;99.66
32873;BME280;19224;52.462;16.898;2023-03-19T05:59:43;100271.16;;;6.95;100.00
32873;BME280;19224;52.462;16.898;2023-03-19T06:02:13;100282.13;;;7.00;99.72
32873;BME280;19224;52.462;16.898;2023-03-19T06:04:45;100275.75;;;7.04;99.58
32873;BME280;19224;52.462;16.898;2023-03-19T06:07:15;100276.36;;;7.13;99.64
32873;BME280;19224;52.462;16.898;2023-03-19T06:09:47;100280.79;;;7.14;99.33
32873;BME280;19224;52.462;16.898;2023-03-19T06:12:19;100286.69;;;7.25;98.80
32873;BME280;19224;52.462;16.898;2023-03-19T06:14:53;100294.52;;;7.31;98.48
32873;BME280;19224;52.462;16.898;2023-03-19T06:17:28;100293.22;;;7.44;98.69
32873;BME280;19224;52.462;16.898;2023-03-19T06:19:55;100286.61;;;7.54;98.03
32873;BME280;19224;52.462;16.898;2023-03-19T06:22:27;100293.34;;;7.67;97.24
32873;BME280;19224;52.462;16.898;2023-03-19T06:25:07;100293.75;;;7.68;97.52
32873;BME280;19224;52.462;16.898;2023-03-19T06:27:50;100294.72;;;7.79;96.66
32873;BME280;19224;52.462;16.898;2023-03-19T06:30:21;100297.95;;;7.88;96.54
32873;BME280;19224;52.462;16.898;2023-03-19T06:32:56;100304.47;;;7.94;96.48
32873;BME280;19224;52.462;16.898;2023-03-19T06:35:28;100302.94;;;8.00;95.96
32873;BME280;19224;52.462;16.898;2023-03-19T06:37:59;100298.64;;;8.08;95.48
32873;BME280;19224;52.462;16.898;2023-03-19T06:40:30;100296.09;;;8.16;94.86
32873;BME280;19224;52.462;16.898;2023-03-19T06:43:00;100302.75;;;8.18;94.24
32873;BME280;19224;52.462;16.898;2023-03-19T06:45:33;100294.87;;;8.26;92.61
32873;BME280;19224;52.462;16.898;2023-03-19T06:48:04;100299.19;;;8.30;92.27
32873;BME280;19224;52.462;16.898;2023-03-19T06:50:34;100300.00;;;8.32;92.71
32873;BME280;19224;52.462;16.898;2023-03-19T06:53:04;100296.06;;;8.42;92.61
32873;BME280;19224;52.462;16.898;2023-03-19T06:55:35;100301.59;;;8.51;91.60
32873;BME280;19224;52.462;16.898;2023-03-19T06:58:07;100305.33;;;8.58;91.53
32873;BME280;19224;52.462;16.898;2023-03-19T07:00:38;100310.63;;;8.60;91.96
32873;BME280;19224;52.462;16.898;2023-03-19T07:03:10;100313.09;;;8.66;91.91
32873;BME280;19224;52.462;16.898;2023-03-19T07:05:40;100321.11;;;8.67;91.58
32873;BME280;19224;52.462;16.898;2023-03-19T07:08:11;100319.40;;;8.76;90.82
32873;BME280;19224;52.462;16.898;2023-03-19T07:10:41;100322.45;;;8.79;90.57
32873;BME280;19224;52.462;16.898;2023-03-19T07:13:11;100321.46;;;8.81;90.57
32873;BME280;19224;52.462;16.898;2023-03-19T07:15:42;100325.97;;;8.92;89.93
32873;BME280;19224;52.462;16.898;2023-03-19T07:18:17;100322.63;;;8.97;88.99
32873;BME280;19224;52.462;16.898;2023-03-19T07:20:47;100321.83;;;9.07;88.45
32873;BME280;19224;52.462;16.898;2023-03-19T07:23:18;100321.89;;;9.17;88.23
32873;BME280;19224;52.462;16.898;2023-03-19T07:25:50;100323.33;;;9.25;87.70
32873;BME280;19224;52.462;16.898;2023-03-19T07:28:20;100318.95;;;9.34;87.00
32873;BME280;19224;52.462;16.898;2023-03-19T07:30:54;100319.05;;;9.43;86.99
32873;BME280;19224;52.462;16.898;2023-03-19T07:33:24;100318.20;;;9.52;86.10
32873;BME280;19224;52.462;16.898;2023-03-19T07:35:55;100326.35;;;9.60;86.07
32873;BME280;19224;52.462;16.898;2023-03-19T07:38:37;100328.22;;;9.70;85.56
32873;BME280;19224;52.462;16.898;2023-03-19T07:41:06;100327.45;;;9.78;84.76
32873;BME280;19224;52.462;16.898;2023-03-19T07:43:37;100325.70;;;9.87;84.02
32873;BME280;19224;52.462;16.898;2023-03-19T07:46:11;100326.98;;;9.88;84.28
32873;BME280;19224;52.462;16.898;2023-03-19T07:48:41;100324.25;;;9.90;84.38
32873;BME280;19224;52.462;16.898;2023-03-19T07:51:16;100317.63;;;9.87;83.59
32873;BME280;19224;52.462;16.898;2023-03-19T07:53:48;100328.36;;;9.98;82.85
32873;BME280;19224;52.462;16.898;2023-03-19T07:56:20;100324.17;;;10.03;82.45
32873;BME280;19224;52.462;16.898;2023-03-19T07:58:52;100326.32;;;10.05;82.15
32873;BME280;19224;52.462;16.898;2023-03-19T08:01:24;100327.14;;;10.17;81.29
32873;BME280;19224;52.462;16.898;2023-03-19T08:03:54;100316.39;;;10.27;80.90
32873;BME280;19224;52.462;16.898;2023-03-19T08:06:25;100313.70;;;10.27;80.46
32873;BME280;19224;52.462;16.898;2023-03-19T08:08:57;100313.22;;;10.37;79.99
32873;BME280;19224;52.462;16.898;2023-03-19T08:11:28;100309.27;;;10.46;78.45
32873;BME280;19224;52.462;16.898;2023-03-19T08:13:59;100307.38;;;10.58;77.30
32873;BME280;19224;52.462;16.898;2023-03-19T08:16:31;100308.78;;;10.66;76.66
32873;BME280;19224;52.462;16.898;2023-03-19T08:19:05;100305.63;;;10.67;76.67
32873;BME280;19224;52.462;16.898;2023-03-19T08:21:39;100307.36;;;10.78;77.01
32873;BME280;19224;52.462;16.898;2023-03-19T08:24:08;100305.72;;;10.84;77.18
32873;BME280;19224;52.462;16.898;2023-03-19T08:26:38;100310.94;;;10.97;76.72
32873;BME280;19224;52.462;16.898;2023-03-19T08:29:17;100308.23;;;11.07;76.19
32873;BME280;19224;52.462;16.898;2023-03-19T08:31:50;100310.25;;;11.12;76.40
32873;BME280;19224;52.462;16.898;2023-03-19T08:34:21;100311.42;;;11.25;75.23
32873;BME280;19224;52.462;16.898;2023-03-19T08:36:52;100308.53;;;11.38;74.52
32873;BME280;19224;52.462;16.898;2023-03-19T08:39:23;100311.23;;;11.38;75.12
32873;BME280;19224;52.462;16.898;2023-03-19T08:41:54;100311.71;;;11.56;74.26
32873;BME280;19224;52.462;16.898;2023-03-19T08:44:30;100310.88;;;11.64;72.91
32873;BME280;19224;52.462;16.898;2023-03-19T08:47:00;100315.77;;;11.74;72.04
32873;BME280;19224;52.462;16.898;2023-03-19T08:49:31;100313.09;;;11.91;71.50
32873;BME280;19224;52.462;16.898;2023-03-19T08:52:03;100318.20;;;12.05;71.39
32873;BME280;19224;52.462;16.898;2023-03-19T08:54:40;100319.32;;;12.18;70.09
32873;BME280;19224;52.462;16.898;2023-03-19T08:57:09;100326.33;;;12.31;69.53
32873;BME280;19224;52.462;16.898;2023-03-19T08:59:39;100328.33;;;12.44;68.81
32873;BME280;19224;52.462;16.898;2023-03-19T09:02:14;100320.27;;;12.60;67.95
32873;BME280;19224;52.462;16.898;2023-03-19T09:04:44;100317.41;;;12.71;66.93
32873;BME280;19224;52.462;16.898;2023-03-19T09:07:18;100324.25;;;12.78;66.61
32873;BME280;19224;52.462;16.898;2023-03-19T09:09:49;100313.74;;;12.89;66.17
32873;BME280;19224;52.462;16.898;2023-03-19T09:12:19;100313.64;;;12.99;65.02
32873;BME280;19224;52.462;16.898;2023-03-19T09:14:49;100316.49;;;13.13;63.87
32873;BME280;19224;52.462;16.898;2023-03-19T09:17:19;100319.55;;;13.23;62.70
32873;BME280;19224;52.462;16.898;2023-03-19T09:19:50;100320.66;;;13.27;63.21
32873;BME280;19224;52.462;16.898;2023-03-19T09:22:22;100312.61;;;13.34;62.06
32873;BME280;19224;52.462;16.898;2023-03-19T09:24:57;100311.53;;;13.45;62.65
32873;BME280;19224;52.462;16.898;2023-03-19T09:27:28;100320.30;;;13.42;62.08
32873;BME280;19224;52.462;16.898;2023-03-19T09:29:58;100320.06;;;13.53;62.47
32873;BME280;19224;52.462;16.898;2023-03-19T09:32:35;100324.97;;;13.62;61.26
32873;BME280;19224;52.462;16.898;2023-03-19T09:35:00;100320.59;;;13.60;58.91
32873;BME280;19224;52.462;16.898;2023-03-19T09:37:30;100317.68;;;13.71;59.36
32873;BME280;19224;52.462;16.898;2023-03-19T09:41:08;100324.32;;;13.81;58.87
32873;BME280;19224;52.462;16.898;2023-03-19T09:46:01;100330.75;;;14.10;56.99
32873;BME280;19224;52.462;16.898;2023-03-19T09:48:39;100330.67;;;14.11;56.44
32873;BME280;19224;52.462;16.898;2023-03-19T09:51:22;100329.80;;;14.26;56.09
32873;BME280;19224;52.462;16.898;2023-03-19T09:53:55;100321.48;;;14.29;55.39
32873;BME280;19224;52.462;16.898;2023-03-19T09:56:25;100320.58;;;14.44;55.34
32873;BME280;19224;52.462;16.898;2023-03-19T09:58:55;100324.07;;;14.53;56.57
32873;BME280;19224;52.462;16.898;2023-03-19T10:01:36;100320.45;;;14.68;55.33
32873;BME280;19224;52.462;16.898;2023-03-19T10:04:36;100321.44;;;14.81;54.16
32873;BME280;19224;52.462;16.898;2023-03-19T10:10:25;100317.86;;;14.87;51.68
32873;BME280;19224;52.462;16.898;2023-03-19T10:15:56;100322.59;;;14.84;51.25
32873;BME280;19224;52.462;16.898;2023-03-19T10:18:37;100324.47;;;14.97;51.10
32873;BME280;19224;52.462;16.898;2023-03-19T10:24:21;100321.26;;;14.91;49.26
32873;BME280;19224;52.462;16.898;2023-03-19T10:26:56;100317.28;;;14.89;49.23
32873;BME280;19224;52.462;16.898;2023-03-19T10:29:30;100318.92;;;14.99;48.71
32873;BME280;19224;52.462;16.898;2023-03-19T10:34:51;100318.35;;;15.08;49.12
32873;BME280;19224;52.462;16.898;2023-03-19T10:37:29;100314.98;;;15.18;49.00
32873;BME280;19224;52.462;16.898;2023-03-19T10:40:00;100327.69;;;15.32;48.66
32873;BME280;19224;52.462;16.898;2023-03-19T10:45:40;100319.83;;;15.55;48.14
32873;BME280;19224;52.462;16.898;2023-03-19T10:48:17;100320.21;;;15.56;47.40
32873;BME280;19224;52.462;16.898;2023-03-19T10:51:00;100314.40;;;15.55;47.22
32873;BME280;19224;52.462;16.898;2023-03-19T10:53:35;100316.44;;;15.52;46.34
32873;BME280;19224;52.462;16.898;2023-03-19T10:56:25;100319.09;;;15.39;46.38
32873;BME280;19224;52.462;16.898;2023-03-19T10:59:03;100320.34;;;15.34;46.62
32873;BME280;19224;52.462;16.898;2023-03-19T11:01:39;100318.37;;;15.43;46.40
32873;BME280;19224;52.462;16.898;2023-03-19T11:04:19;100309.47;;;15.48;46.23
32873;BME280;19224;52.462;16.898;2023-03-19T11:06:52;100309.94;;;15.47;46.37
32873;BME280;19224;52.462;16.898;2023-03-19T11:09:42;100307.31;;;15.53;46.51
32873;BME280;19224;52.462;16.898;2023-03-19T11:12:30;100311.00;;;15.52;46.32
32873;BME280;19224;52.462;16.898;2023-03-19T11:15:01;100305.40;;;15.48;46.87
32873;BME280;19224;52.462;16.898;2023-03-19T11:17:45;100301.20;;;15.49;47.12
32873;BME280;19224;52.462;16.898;2023-03-19T11:20:30;100299.17;;;15.53;47.43
32873;BME280;19224;52.462;16.898;2023-03-19T11:23:10;100296.45;;;15.67;46.66
32873;BME280;19224;52.462;16.898;2023-03-19T11:25:45;100300.88;;;15.75;46.24
32873;BME280;19224;52.462;16.898;2023-03-19T11:28:24;100299.13;;;15.81;46.19
32873;BME280;19224;52.462;16.898;2023-03-19T11:31:40;100292.72;;;15.82;45.47
32873;BME280;19224;52.462;16.898;2023-03-19T11:40:46;100285.41;;;16.16;45.50
32873;BME280;19224;52.462;16.898;2023-03-19T12:07:12;100280.79;;;16.30;45.44
32873;BME280;19224;52.462;16.898;2023-03-19T12:15:44;100280.48;;;16.35;45.34
32873;BME280;19224;52.462;16.898;2023-03-19T12:21:45;100269.51;;;16.10;46.11
32873;BME280;19224;52.462;16.898;2023-03-19T12:27:31;100272.30;;;16.15;46.21
32873;BME280;19224;52.462;16.898;2023-03-19T12:30:28;100280.28;;;16.31;46.01
32873;BME280;19224;52.462;16.898;2023-03-19T12:36:11;100277.93;;;16.19;46.20
32873;BME280;19224;52.462;16.898;2023-03-19T12:38:52;100286.08;;;16.00;47.52
32873;BME280;19224;52.462;16.898;2023-03-19T12:41:27;100278.92;;;15.85;48.72
32873;BME280;19224;52.462;16.898;2023-03-19T12:44:09;100275.54;;;16.08;48.04
32873;BME280;19224;52.462;16.898;2023-03-19T12:47:02;100266.55;;;16.20;47.98
32873;BME280;19224;52.462;16.898;2023-03-19T12:49:36;100272.52;;;16.39;47.72
32873;BME280;19224;52.462;16.898;2023-03-19T12:52:48;100267.94;;;16.59;47.46
32873;BME280;19224;52.462;16.898;2023-03-19T12:55:24;100267.17;;;16.69;47.12
32873;BME280;19224;52.462;16.898;2023-03-19T12:58:00;100270.70;;;16.77;47.06
32873;BME280;19224;52.462;16.898;2023-03-19T13:00:35;100268.98;;;16.88;47.19
32873;BME280;19224;52.462;16.898;2023-03-19T13:03:12;100269.88;;;16.89;47.26
32873;BME280;19224;52.462;16.898;2023-03-19T13:06:07;100264.73;;;16.96;47.65
32873;BME280;19224;52.462;16.898;2023-03-19T13:08:44;100259.72;;;17.03;47.38
32873;BME280;19224;52.462;16.898;2023-03-19T13:11:26;100254.94;;;17.06;47.67
32873;BME280;19224;52.462;16.898;2023-03-19T13:14:05;100257.37;;;17.04;47.75
32873;BME280;19224;52.462;16.898;2023-03-19T13:17:10;100249.51;;;16.82;48.00
32873;BME280;19224;52.462;16.898;2023-03-19T13:22:18;100246.58;;;16.97;47.96
32873;BME280;19224;52.462;16.898;2023-03-19T13:24:48;100241.69;;;16.90;47.76
32873;BME280;19224;52.462;16.898;2023-03-19T13:27:26;100234.98;;;17.00;48.16
32873;BME280;19224;52.462;16.898;2023-03-19T13:32:59;100232.49;;;17.28;48.18
32873;BME280;19224;52.462;16.898;2023-03-19T13:35:38;100233.95;;;17.26;49.08
32873;BME280;19224;52.462;16.898;2023-03-19T13:38:27;100235.22;;;17.28;49.07
32873;BME280;19224;52.462;16.898;2023-03-19T13:41:00;100231.23;;;17.26;49.37
32873;BME280;19224;52.462;16.898;2023-03-19T13:48:53;100231.09;;;17.22;49.00
32873;BME280;19224;52.462;16.898;2023-03-19T13:51:30;100223.87;;;17.21;49.32
32873;BME280;19224;52.462;16.898;2023-03-19T13:54:16;100226.39;;;17.24;49.03
32873;BME280;19224;52.462;16.898;2023-03-19T13:59:43;100220.02;;;17.18;48.36
32873;BME280;19224;52.462;16.898;2023-03-19T14:05:07;100214.67;;;17.11;48.98
32873;BME280;19224;52.462;16.898;2023-03-19T14:07:41;100216.64;;;17.27;49.15
32873;BME280;19224;52.462;16.898;2023-03-19T14:10:23;100215.21;;;17.34;49.26
32873;BME280;19224;52.462;16.898;2023-03-19T14:13:08;100212.91;;;17.35;49.00
32873;BME280;19224;52.462;16.898;2023-03-19T14:15:46;100215.62;;;17.35;49.04
32873;BME280;19224;52.462;16.898;2023-03-19T14:18:17;100208.88;;;17.34;49.07
32873;BME280;19224;52.462;16.898;2023-03-19T14:21:03;100215.09;;;17.48;48.89
32873;BME280;19224;52.462;16.898;2023-03-19T14:23:31;100214.41;;;17.57;48.95
32873;BME280;19224;52.462;16.898;2023-03-19T14:26:14;100212.16;;;17.57;48.87
32873;BME280;19224;52.462;16.898;2023-03-19T14:29:14;100212.06;;;17.58;47.45
32873;BME280;19224;52.462;16.898;2023-03-19T14:37:25;100218.94;;;17.69;44.96
32873;BME280;19224;52.462;16.898;2023-03-19T14:43:15;100215.30;;;17.63;45.17
32873;BME280;19224;52.462;16.898;2023-03-19T14:46:01;100214.17;;;17.60;45.71
32873;BME280;19224;52.462;16.898;2023-03-19T14:49:09;100215.77;;;17.57;45.17
32873;BME280;19224;52.462;16.898;2023-03-19T14:54:50;100210.77;;;17.51;45.49
32873;BME280;19224;52.462;16.898;2023-03-19T14:57:25;100209.78;;;17.52;45.17
32873;BME280;19224;52.462;16.898;2023-03-19T14:59:54;100219.66;;;17.48;45.62
32873;BME280;19224;52.462;16.898;2023-03-19T15:02:49;100213.87;;;17.52;46.08